sensor_id;sensor_type;location;lat;lon;timestamp;temperature;humidity
58781;SHT30;45243;51.548;6.990;2022-07-01T00:01:27;14.51;99.99
58781;SHT30;45243;51.548;6.990;2022-07-01T00:03:53;14.48;99.99
58781;SHT30;45243;51.548;6.990;2022-07-01T00:06:18;14.48;99.99
58781;SHT30;45243;51.548;6.990;2022-07-01T00:08:43;14.48;99.99
58781;SHT30;45243;51.548;6.990;2022-07-01T00:11:09;14.47;99.99
58781;SHT30;45243;51.548;6.990;2022-07-01T00:13:34;14.47;99.99
58781;SHT30;45243;51.548;6.990;2022-07-01T00:16:00;14.48;99.99
58781;SHT30;45243;51.548;6.990;2022-07-01T00:18:25;14.44;99.99
58781;SHT30;45243;51.548;6.990;2022-07-01T00:20:51;14.44;99.99
58781;SHT30;45243;51.548;6.990;2022-07-01T00:23:17;14.44;99.99
58781;SHT30;45243;51.548;6.990;2022-07-01T00:25:43;14.41;99.99
58781;SHT30;45243;51.548;6.990;2022-07-01T00:28:09;14.39;99.99
58781;SHT30;45243;51.548;6.990;2022-07-01T00:30:34;14.34;99.99
58781;SHT30;45243;51.548;6.990;2022-07-01T00:33:00;14.32;99.99
58781;SHT30;45243;51.548;6.990;2022-07-01T00:35:25;14.29;99.99
58781;SHT30;45243;51.548;6.990;2022-07-01T00:37:51;14.25;99.99
58781;SHT30;45243;51.548;6.990;2022-07-01T00:40:16;14.27;99.99
58781;SHT30;45243;51.548;6.990;2022-07-01T00:42:41;14.27;99.99
58781;SHT30;45243;51.548;6.990;2022-07-01T00:45:08;14.28;99.99
58781;SHT30;45243;51.548;6.990;2022-07-01T00:47:35;14.29;99.99
58781;SHT30;45243;51.548;6.990;2022-07-01T00:50:02;14.28;99.99
58781;SHT30;45243;51.548;6.990;2022-07-01T00:52:31;14.25;99.99
58781;SHT30;45243;51.548;6.990;2022-07-01T00:54:57;14.27;99.99
58781;SHT30;45243;51.548;6.990;2022-07-01T00:57:24;14.27;99.99
58781;SHT30;45243;51.548;6.990;2022-07-01T00:59:55;14.28;99.99
58781;SHT30;45243;51.548;6.990;2022-07-01T01:02:20;14.27;99.99
58781;SHT30;45243;51.548;6.990;2022-07-01T01:04:46;14.28;99.99
58781;SHT30;45243;51.548;6.990;2022-07-01T01:07:12;14.32;99.99
58781;SHT30;45243;51.548;6.990;2022-07-01T01:09:38;14.35;99.99
58781;SHT30;45243;51.548;6.990;2022-07-01T01:12:03;14.34;99.99
58781;SHT30;45243;51.548;6.990;2022-07-01T01:14:48;14.32;99.99
58781;SHT30;45243;51.548;6.990;2022-07-01T01:17:17;14.31;99.99
58781;SHT30;45243;51.548;6.990;2022-07-01T01:19:43;14.27;99.99
58781;SHT30;45243;51.548;6.990;2022-07-01T01:22:10;14.22;99.99
58781;SHT30;45243;51.548;6.990;2022-07-01T01:24:39;14.21;99.99
58781;SHT30;45243;51.548;6.990;2022-07-01T01:27:05;14.17;99.99
58781;SHT30;45243;51.548;6.990;2022-07-01T01:29:31;14.14;99.99
58781;SHT30;45243;51.548;6.990;2022-07-01T01:31:57;14.13;99.99
58781;SHT30;45243;51.548;6.990;2022-07-01T01:34:22;14.13;99.99
58781;SHT30;45243;51.548;6.990;2022-07-01T01:36:47;14.14;99.99
58781;SHT30;45243;51.548;6.990;2022-07-01T01:39:13;14.17;99.99
58781;SHT30;45243;51.548;6.990;2022-07-01T01:41:41;14.21;99.99
58781;SHT30;45243;51.548;6.990;2022-07-01T01:44:07;14.28;99.99
58781;SHT30;45243;51.548;6.990;2022-07-01T01:46:33;14.31;99.99
58781;SHT30;45243;51.548;6.990;2022-07-01T01:48:59;14.28;99.99
58781;SHT30;45243;51.548;6.990;2022-07-01T01:51:25;14.27;99.99
58781;SHT30;45243;51.548;6.990;2022-07-01T01:53:51;14.28;99.99
58781;SHT30;45243;51.548;6.990;2022-07-01T01:56:16;14.28;99.99
58781;SHT30;45243;51.548;6.990;2022-07-01T01:58:42;14.22;99.99
58781;SHT30;45243;51.548;6.990;2022-07-01T02:01:10;14.21;99.99
58781;SHT30;45243;51.548;6.990;2022-07-01T02:03:37;14.17;99.99
58781;SHT30;45243;51.548;6.990;2022-07-01T02:06:04;14.10;99.99
58781;SHT30;45243;51.548;6.990;2022-07-01T02:08:30;14.07;99.99
58781;SHT30;45243;51.548;6.990;2022-07-01T02:10:56;13.99;99.99
58781;SHT30;45243;51.548;6.990;2022-07-01T02:13:21;13.91;99.99
58781;SHT30;45243;51.548;6.990;2022-07-01T02:15:47;13.91;99.99
58781;SHT30;45243;51.548;6.990;2022-07-01T02:18:14;13.86;99.99
58781;SHT30;45243;51.548;6.990;2022-07-01T02:20:39;13.89;99.99
58781;SHT30;45243;51.548;6.990;2022-07-01T02:23:06;13.85;99.99
58781;SHT30;45243;51.548;6.990;2022-07-01T02:25:31;13.85;99.99
58781;SHT30;45243;51.548;6.990;2022-07-01T02:27:56;13.85;99.99
58781;SHT30;45243;51.548;6.990;2022-07-01T02:30:23;13.86;99.99
58781;SHT30;45243;51.548;6.990;2022-07-01T02:32:49;13.86;99.99
58781;SHT30;45243;51.548;6.990;2022-07-01T02:35:14;13.83;99.99
58781;SHT30;45243;51.548;6.990;2022-07-01T02:37:39;13.83;99.99
58781;SHT30;45243;51.548;6.990;2022-07-01T02:40:05;13.76;99.99
58781;SHT30;45243;51.548;6.990;2022-07-01T02:42:31;13.78;99.99
58781;SHT30;45243;51.548;6.990;2022-07-01T02:45:00;13.79;99.99
58781;SHT30;45243;51.548;6.990;2022-07-01T02:47:37;13.76;99.99
58781;SHT30;45243;51.548;6.990;2022-07-01T02:50:04;13.72;99.99
58781;SHT30;45243;51.548;6.990;2022-07-01T02:52:33;13.69;99.99
58781;SHT30;45243;51.548;6.990;2022-07-01T02:55:00;13.69;99.99
58781;SHT30;45243;51.548;6.990;2022-07-01T02:57:26;13.58;99.99
58781;SHT30;45243;51.548;6.990;2022-07-01T02:59:52;13.53;99.99
58781;SHT30;45243;51.548;6.990;2022-07-01T03:02:18;13.51;99.99
58781;SHT30;45243;51.548;6.990;2022-07-01T03:04:43;13.49;99.99
58781;SHT30;45243;51.548;6.990;2022-07-01T03:07:09;13.51;99.99
58781;SHT30;45243;51.548;6.990;2022-07-01T03:09:34;13.55;99.99
58781;SHT30;45243;51.548;6.990;2022-07-01T03:12:00;13.65;99.99
58781;SHT30;45243;51.548;6.990;2022-07-01T03:14:45;13.65;99.99
58781;SHT30;45243;51.548;6.990;2022-07-01T03:17:11;13.72;99.99
58781;SHT30;45243;51.548;6.990;2022-07-01T03:19:36;13.75;99.99
58781;SHT30;45243;51.548;6.990;2022-07-01T03:22:01;13.76;99.99
58781;SHT30;45243;51.548;6.990;2022-07-01T03:24:27;13.75;99.99
58781;SHT30;45243;51.548;6.990;2022-07-01T03:26:52;13.70;99.99
58781;SHT30;45243;51.548;6.990;2022-07-01T03:29:17;13.76;99.99
58781;SHT30;45243;51.548;6.990;2022-07-01T03:31:43;13.75;99.99
58781;SHT30;45243;51.548;6.990;2022-07-01T03:34:08;13.78;99.99
58781;SHT30;45243;51.548;6.990;2022-07-01T03:36:33;13.67;99.99
58781;SHT30;45243;51.548;6.990;2022-07-01T03:39:01;13.67;99.99
58781;SHT30;45243;51.548;6.990;2022-07-01T03:41:28;13.67;99.99
58781;SHT30;45243;51.548;6.990;2022-07-01T03:43:53;13.66;99.99
58781;SHT30;45243;51.548;6.990;2022-07-01T03:46:19;13.67;99.99
58781;SHT30;45243;51.548;6.990;2022-07-01T03:48:44;13.67;99.99
58781;SHT30;45243;51.548;6.990;2022-07-01T03:51:10;13.66;99.99
58781;SHT30;45243;51.548;6.990;2022-07-01T03:53:35;13.66;99.99
58781;SHT30;45243;51.548;6.990;2022-07-01T03:56:19;13.75;99.99
58781;SHT30;45243;51.548;6.990;2022-07-01T03:58:45;13.76;99.99
58781;SHT30;45243;51.548;6.990;2022-07-01T04:01:10;13.80;99.99
58781;SHT30;45243;51.548;6.990;2022-07-01T04:03:35;13.86;99.99
58781;SHT30;45243;51.548;6.990;2022-07-01T04:06:01;13.80;99.99
58781;SHT30;45243;51.548;6.990;2022-07-01T04:08:26;13.82;99.99
58781;SHT30;45243;51.548;6.990;2022-07-01T04:10:52;13.75;99.99
58781;SHT30;45243;51.548;6.990;2022-07-01T04:13:19;13.76;99.99
58781;SHT30;45243;51.548;6.990;2022-07-01T04:15:46;13.78;99.99
58781;SHT30;45243;51.548;6.990;2022-07-01T04:18:11;13.79;99.99
58781;SHT30;45243;51.548;6.990;2022-07-01T04:20:37;13.83;99.99
58781;SHT30;45243;51.548;6.990;2022-07-01T04:23:02;13.85;99.99
58781;SHT30;45243;51.548;6.990;2022-07-01T04:25:27;13.87;99.99
58781;SHT30;45243;51.548;6.990;2022-07-01T04:27:55;13.90;99.99
58781;SHT30;45243;51.548;6.990;2022-07-01T04:30:21;13.99;99.99
58781;SHT30;45243;51.548;6.990;2022-07-01T04:32:46;14.01;99.99
58781;SHT30;45243;51.548;6.990;2022-07-01T04:35:12;14.04;99.99
58781;SHT30;45243;51.548;6.990;2022-07-01T04:37:39;14.04;99.99
58781;SHT30;45243;51.548;6.990;2022-07-01T04:40:05;14.06;99.99
58781;SHT30;45243;51.548;6.990;2022-07-01T04:42:31;14.07;99.99
58781;SHT30;45243;51.548;6.990;2022-07-01T04:44:56;14.10;99.99
58781;SHT30;45243;51.548;6.990;2022-07-01T04:47:22;14.07;99.99
58781;SHT30;45243;51.548;6.990;2022-07-01T04:49:48;14.10;99.99
58781;SHT30;45243;51.548;6.990;2022-07-01T04:52:14;14.11;99.99
58781;SHT30;45243;51.548;6.990;2022-07-01T04:54:39;14.13;99.99
58781;SHT30;45243;51.548;6.990;2022-07-01T04:57:04;14.21;99.99
58781;SHT30;45243;51.548;6.990;2022-07-01T04:59:30;14.22;99.99
58781;SHT30;45243;51.548;6.990;2022-07-01T05:01:55;14.24;99.99
58781;SHT30;45243;51.548;6.990;2022-07-01T05:04:20;14.25;99.99
58781;SHT30;45243;51.548;6.990;2022-07-01T05:06:46;14.22;99.99
58781;SHT30;45243;51.548;6.990;2022-07-01T05:09:12;14.24;99.99
58781;SHT30;45243;51.548;6.990;2022-07-01T05:11:37;14.24;99.99
58781;SHT30;45243;51.548;6.990;2022-07-01T05:14:04;14.27;99.99
58781;SHT30;45243;51.548;6.990;2022-07-01T05:16:29;14.21;99.99
58781;SHT30;45243;51.548;6.990;2022-07-01T05:18:55;14.20;99.99
58781;SHT30;45243;51.548;6.990;2022-07-01T05:21:39;14.24;99.99
58781;SHT30;45243;51.548;6.990;2022-07-01T05:24:23;14.27;99.99
58781;SHT30;45243;51.548;6.990;2022-07-01T05:26:50;14.35;99.99
58781;SHT30;45243;51.548;6.990;2022-07-01T05:29:16;14.29;99.99
58781;SHT30;45243;51.548;6.990;2022-07-01T05:31:41;14.31;99.99
58781;SHT30;45243;51.548;6.990;2022-07-01T05:34:07;14.22;99.99
58781;SHT30;45243;51.548;6.990;2022-07-01T05:36:33;14.18;99.99
58781;SHT30;45243;51.548;6.990;2022-07-01T05:38:59;14.24;99.99
58781;SHT30;45243;51.548;6.990;2022-07-01T05:41:24;14.27;99.99
58781;SHT30;45243;51.548;6.990;2022-07-01T05:43:49;14.27;99.99
58781;SHT30;45243;51.548;6.990;2022-07-01T05:46:15;14.28;99.99
58781;SHT30;45243;51.548;6.990;2022-07-01T05:48:40;14.21;99.99
58781;SHT30;45243;51.548;6.990;2022-07-01T05:51:05;14.25;99.99
58781;SHT30;45243;51.548;6.990;2022-07-01T05:53:31;14.38;99.99
58781;SHT30;45243;51.548;6.990;2022-07-01T05:55:56;14.38;99.99
58781;SHT30;45243;51.548;6.990;2022-07-01T05:58:21;14.32;99.99
58781;SHT30;45243;51.548;6.990;2022-07-01T06:00:47;14.37;99.99
58781;SHT30;45243;51.548;6.990;2022-07-01T06:03:13;14.37;99.99
58781;SHT30;45243;51.548;6.990;2022-07-01T06:05:39;14.27;99.99
58781;SHT30;45243;51.548;6.990;2022-07-01T06:08:06;14.22;99.99
58781;SHT30;45243;51.548;6.990;2022-07-01T06:10:31;14.27;99.99
58781;SHT30;45243;51.548;6.990;2022-07-01T06:12:57;14.24;99.97
58781;SHT30;45243;51.548;6.990;2022-07-01T06:15:23;14.24;99.99
58781;SHT30;45243;51.548;6.990;2022-07-01T06:17:49;14.28;99.99
58781;SHT30;45243;51.548;6.990;2022-07-01T06:20:14;14.41;99.99
58781;SHT30;45243;51.548;6.990;2022-07-01T06:22:40;14.52;99.99
58781;SHT30;45243;51.548;6.990;2022-07-01T06:25:05;14.56;99.98
58781;SHT30;45243;51.548;6.990;2022-07-01T06:27:32;14.64;99.99
58781;SHT30;45243;51.548;6.990;2022-07-01T06:30:03;14.62;99.96
58781;SHT30;45243;51.548;6.990;2022-07-01T06:32:28;14.71;99.99
58781;SHT30;45243;51.548;6.990;2022-07-01T06:34:54;14.72;99.70
58781;SHT30;45243;51.548;6.990;2022-07-01T06:37:19;14.87;99.81
58781;SHT30;45243;51.548;6.990;2022-07-01T06:39:46;15.04;99.69
58781;SHT30;45243;51.548;6.990;2022-07-01T06:42:12;15.14;99.38
58781;SHT30;45243;51.548;6.990;2022-07-01T06:44:37;15.30;99.57
58781;SHT30;45243;51.548;6.990;2022-07-01T06:47:02;15.27;99.09
58781;SHT30;45243;51.548;6.990;2022-07-01T06:49:28;15.18;99.11
58781;SHT30;45243;51.548;6.990;2022-07-01T06:51:53;15.14;99.01
58781;SHT30;45243;51.548;6.990;2022-07-01T06:54:18;15.08;98.77
58781;SHT30;45243;51.548;6.990;2022-07-01T06:56:44;15.02;98.40
58781;SHT30;45243;51.548;6.990;2022-07-01T06:59:10;15.02;98.89
58781;SHT30;45243;51.548;6.990;2022-07-01T07:01:35;15.07;98.93
58781;SHT30;45243;51.548;6.990;2022-07-01T07:04:00;15.07;98.85
58781;SHT30;45243;51.548;6.990;2022-07-01T07:06:26;15.14;98.77
58781;SHT30;45243;51.548;6.990;2022-07-01T07:08:52;15.34;99.16
58781;SHT30;45243;51.548;6.990;2022-07-01T07:11:18;15.38;98.79
58781;SHT30;45243;51.548;6.990;2022-07-01T07:13:45;15.34;98.36
58781;SHT30;45243;51.548;6.990;2022-07-01T07:16:10;15.35;98.16
58781;SHT30;45243;51.548;6.990;2022-07-01T07:18:35;15.47;98.09
58781;SHT30;45243;51.548;6.990;2022-07-01T07:21:01;15.62;98.00
58781;SHT30;45243;51.548;6.990;2022-07-01T07:23:28;15.72;97.79
58781;SHT30;45243;51.548;6.990;2022-07-01T07:25:53;15.75;97.70
58781;SHT30;45243;51.548;6.990;2022-07-01T07:28:19;15.81;97.66
58781;SHT30;45243;51.548;6.990;2022-07-01T07:30:44;15.79;97.32
58781;SHT30;45243;51.548;6.990;2022-07-01T07:33:10;15.75;97.07
58781;SHT30;45243;51.548;6.990;2022-07-01T07:35:35;15.72;96.88
58781;SHT30;45243;51.548;6.990;2022-07-01T07:38:00;15.86;97.51
58781;SHT30;45243;51.548;6.990;2022-07-01T07:40:26;16.03;97.84
58781;SHT30;45243;51.548;6.990;2022-07-01T07:42:51;15.97;97.41
58781;SHT30;45243;51.548;6.990;2022-07-01T07:45:17;16.08;97.64
58781;SHT30;45243;51.548;6.990;2022-07-01T07:47:46;16.05;97.43
58781;SHT30;45243;51.548;6.990;2022-07-01T07:50:19;16.02;97.18
58781;SHT30;45243;51.548;6.990;2022-07-01T07:52:46;15.99;97.13
58781;SHT30;45243;51.548;6.990;2022-07-01T07:55:11;16.00;97.43
58781;SHT30;45243;51.548;6.990;2022-07-01T07:57:36;16.06;97.46
58781;SHT30;45243;51.548;6.990;2022-07-01T08:00:03;16.03;97.22
58781;SHT30;45243;51.548;6.990;2022-07-01T08:02:30;16.16;97.30
58781;SHT30;45243;51.548;6.990;2022-07-01T08:04:55;16.24;96.23
58781;SHT30;45243;51.548;6.990;2022-07-01T08:07:20;16.20;94.84
58781;SHT30;45243;51.548;6.990;2022-07-01T08:09:45;16.34;95.25
58781;SHT30;45243;51.548;6.990;2022-07-01T08:12:14;16.37;95.24
58781;SHT30;45243;51.548;6.990;2022-07-01T08:14:39;16.29;95.55
58781;SHT30;45243;51.548;6.990;2022-07-01T08:17:05;16.17;94.97
58781;SHT30;45243;51.548;6.990;2022-07-01T08:19:30;16.16;95.72
58781;SHT30;45243;51.548;6.990;2022-07-01T08:21:56;16.03;95.43
58781;SHT30;45243;51.548;6.990;2022-07-01T08:24:21;15.92;94.88
58781;SHT30;45243;51.548;6.990;2022-07-01T08:26:47;15.99;95.82
58781;SHT30;45243;51.548;6.990;2022-07-01T08:29:12;15.94;96.03
58781;SHT30;45243;51.548;6.990;2022-07-01T08:31:37;15.92;96.11
58781;SHT30;45243;51.548;6.990;2022-07-01T08:34:03;15.94;95.27
58781;SHT30;45243;51.548;6.990;2022-07-01T08:36:28;15.97;94.99
58781;SHT30;45243;51.548;6.990;2022-07-01T08:38:53;16.10;94.79
58781;SHT30;45243;51.548;6.990;2022-07-01T08:41:19;16.30;95.02
58781;SHT30;45243;51.548;6.990;2022-07-01T08:43:44;16.79;95.80
58781;SHT30;45243;51.548;6.990;2022-07-01T08:46:10;16.76;93.29
58781;SHT30;45243;51.548;6.990;2022-07-01T08:48:35;16.79;91.60
58781;SHT30;45243;51.548;6.990;2022-07-01T08:51:01;17.24;90.09
58781;SHT30;45243;51.548;6.990;2022-07-01T08:53:30;17.36;84.84
58781;SHT30;45243;51.548;6.990;2022-07-01T08:55:56;17.45;85.00
58781;SHT30;45243;51.548;6.990;2022-07-01T08:58:40;17.34;82.18
58781;SHT30;45243;51.548;6.990;2022-07-01T09:01:16;17.27;81.91
58781;SHT30;45243;51.548;6.990;2022-07-01T09:03:48;17.23;82.19
58781;SHT30;45243;51.548;6.990;2022-07-01T09:06:21;17.26;82.29
58781;SHT30;45243;51.548;6.990;2022-07-01T09:08:48;17.77;80.90
58781;SHT30;45243;51.548;6.990;2022-07-01T09:11:21;18.24;79.71
58781;SHT30;45243;51.548;6.990;2022-07-01T09:14:07;18.49;75.76
58781;SHT30;45243;51.548;6.990;2022-07-01T09:16:44;18.40;77.53
58781;SHT30;45243;51.548;6.990;2022-07-01T09:19:11;18.87;76.14
58781;SHT30;45243;51.548;6.990;2022-07-01T09:21:37;19.32;74.88
58781;SHT30;45243;51.548;6.990;2022-07-01T09:24:04;19.40;72.37
58781;SHT30;45243;51.548;6.990;2022-07-01T09:26:56;19.15;73.26
58781;SHT30;45243;51.548;6.990;2022-07-01T09:29:28;19.10;74.68
58781;SHT30;45243;51.548;6.990;2022-07-01T09:31:59;19.03;71.89
58781;SHT30;45243;51.548;6.990;2022-07-01T09:34:31;18.98;72.63
58781;SHT30;45243;51.548;6.990;2022-07-01T09:37:01;18.99;73.56
58781;SHT30;45243;51.548;6.990;2022-07-01T09:39:26;19.12;77.64
58781;SHT30;45243;51.548;6.990;2022-07-01T09:41:56;19.49;71.63
58781;SHT30;45243;51.548;6.990;2022-07-01T09:44:22;19.60;68.68
58781;SHT30;45243;51.548;6.990;2022-07-01T09:46:51;19.68;68.96
58781;SHT30;45243;51.548;6.990;2022-07-01T09:49:18;19.81;67.56
58781;SHT30;45243;51.548;6.990;2022-07-01T09:51:43;19.73;67.87
58781;SHT30;45243;51.548;6.990;2022-07-01T09:54:10;19.47;68.89
58781;SHT30;45243;51.548;6.990;2022-07-01T09:56:37;19.16;68.69
58781;SHT30;45243;51.548;6.990;2022-07-01T09:59:03;19.10;70.27
58781;SHT30;45243;51.548;6.990;2022-07-01T10:01:28;19.10;72.27
58781;SHT30;45243;51.548;6.990;2022-07-01T10:03:56;18.94;73.92
58781;SHT30;45243;51.548;6.990;2022-07-01T10:06:26;19.19;72.96
58781;SHT30;45243;51.548;6.990;2022-07-01T10:11:56;19.30;69.15
58781;SHT30;45243;51.548;6.990;2022-07-01T10:14:37;19.47;67.25
58781;SHT30;45243;51.548;6.990;2022-07-01T10:17:03;19.46;65.22
58781;SHT30;45243;51.548;6.990;2022-07-01T10:19:29;19.49;68.10
58781;SHT30;45243;51.548;6.990;2022-07-01T10:21:56;19.64;67.66
58781;SHT30;45243;51.548;6.990;2022-07-01T10:24:26;20.09;65.85
58781;SHT30;45243;51.548;6.990;2022-07-01T10:26:52;20.16;65.01
58781;SHT30;45243;51.548;6.990;2022-07-01T10:32:07;20.23;65.42
58781;SHT30;45243;51.548;6.990;2022-07-01T10:34:40;20.32;61.85
58781;SHT30;45243;51.548;6.990;2022-07-01T10:37:07;20.42;65.09
58781;SHT30;45243;51.548;6.990;2022-07-01T10:42:18;20.52;65.46
58781;SHT30;45243;51.548;6.990;2022-07-01T10:47:32;20.46;64.06
58781;SHT30;45243;51.548;6.990;2022-07-01T10:50:08;20.36;64.17
58781;SHT30;45243;51.548;6.990;2022-07-01T10:52:38;20.08;64.81
58781;SHT30;45243;51.548;6.990;2022-07-01T10:55:05;20.04;65.48
58781;SHT30;45243;51.548;6.990;2022-07-01T10:57:39;20.37;63.31
58781;SHT30;45243;51.548;6.990;2022-07-01T14:02:21;21.46;52.46
58781;SHT30;45243;51.548;6.990;2022-07-01T14:04:46;21.36;56.99
58781;SHT30;45243;51.548;6.990;2022-07-01T14:07:12;21.77;54.11
58781;SHT30;45243;51.548;6.990;2022-07-01T14:09:37;21.90;53.27
58781;SHT30;45243;51.548;6.990;2022-07-01T14:16:57;23.81;50.23
58781;SHT30;45243;51.548;6.990;2022-07-01T14:19:23;23.93;49.18
58781;SHT30;45243;51.548;6.990;2022-07-01T14:21:48;23.34;49.96
58781;SHT30;45243;51.548;6.990;2022-07-01T14:24:13;23.16;50.47
58781;SHT30;45243;51.548;6.990;2022-07-01T14:26:39;22.87;50.72
58781;SHT30;45243;51.548;6.990;2022-07-01T14:29:04;23.03;52.41
58781;SHT30;45243;51.548;6.990;2022-07-01T14:31:29;23.55;52.97
58781;SHT30;45243;51.548;6.990;2022-07-01T14:33:54;24.04;51.20
58781;SHT30;45243;51.548;6.990;2022-07-01T14:36:20;23.24;49.74
58781;SHT30;45243;51.548;6.990;2022-07-01T14:38:45;22.59;51.90
58781;SHT30;45243;51.548;6.990;2022-07-01T14:41:10;22.08;55.36
58781;SHT30;45243;51.548;6.990;2022-07-01T14:43:36;21.94;51.94
58781;SHT30;45243;51.548;6.990;2022-07-01T14:46:02;21.69;52.23
58781;SHT30;45243;51.548;6.990;2022-07-01T14:48:33;21.57;53.63
58781;SHT30;45243;51.548;6.990;2022-07-01T14:51:00;21.38;55.60
58781;SHT30;45243;51.548;6.990;2022-07-01T14:53:25;21.27;55.67
58781;SHT30;45243;51.548;6.990;2022-07-01T14:55:51;21.23;54.53
58781;SHT30;45243;51.548;6.990;2022-07-01T14:58:16;22.08;57.20
58781;SHT30;45243;51.548;6.990;2022-07-01T15:00:41;22.45;52.20
58781;SHT30;45243;51.548;6.990;2022-07-01T15:03:07;22.68;53.05
58781;SHT30;45243;51.548;6.990;2022-07-01T15:05:32;23.28;50.63
58781;SHT30;45243;51.548;6.990;2022-07-01T15:07:58;23.58;51.55
58781;SHT30;45243;51.548;6.990;2022-07-01T15:10:23;23.33;49.87
58781;SHT30;45243;51.548;6.990;2022-07-01T15:12:49;23.01;53.16
58781;SHT30;45243;51.548;6.990;2022-07-01T15:15:15;23.01;52.38
58781;SHT30;45243;51.548;6.990;2022-07-01T15:17:42;23.23;53.26
58781;SHT30;45243;51.548;6.990;2022-07-01T15:20:11;23.24;50.18
58781;SHT30;45243;51.548;6.990;2022-07-01T15:22:38;23.03;51.86
58781;SHT30;45243;51.548;6.990;2022-07-01T15:25:04;22.39;52.73
58781;SHT30;45243;51.548;6.990;2022-07-01T15:27:29;22.07;54.01
58781;SHT30;45243;51.548;6.990;2022-07-01T15:29:55;21.97;53.79
58781;SHT30;45243;51.548;6.990;2022-07-01T15:32:20;22.15;54.45
58781;SHT30;45243;51.548;6.990;2022-07-01T15:34:45;21.74;57.51
58781;SHT30;45243;51.548;6.990;2022-07-01T15:37:11;21.47;55.70
58781;SHT30;45243;51.548;6.990;2022-07-01T15:39:37;21.31;51.41
58781;SHT30;45243;51.548;6.990;2022-07-01T15:42:02;21.31;51.85
58781;SHT30;45243;51.548;6.990;2022-07-01T15:44:28;21.27;56.54
58781;SHT30;45243;51.548;6.990;2022-07-01T15:46:54;21.36;52.68
58781;SHT30;45243;51.548;6.990;2022-07-01T15:49:20;21.57;52.48
58781;SHT30;45243;51.548;6.990;2022-07-01T15:51:45;21.60;53.92
58781;SHT30;45243;51.548;6.990;2022-07-01T15:54:10;21.65;53.64
58781;SHT30;45243;51.548;6.990;2022-07-01T15:56:36;21.70;58.10
58781;SHT30;45243;51.548;6.990;2022-07-01T15:59:01;21.87;55.48
58781;SHT30;45243;51.548;6.990;2022-07-01T16:01:27;21.57;58.64
58781;SHT30;45243;51.548;6.990;2022-07-01T16:03:52;21.32;56.38
58781;SHT30;45243;51.548;6.990;2022-07-01T16:06:19;21.14;54.15
58781;SHT30;45243;51.548;6.990;2022-07-01T16:08:46;21.02;53.78
58781;SHT30;45243;51.548;6.990;2022-07-01T16:11:14;20.91;54.24
58781;SHT30;45243;51.548;6.990;2022-07-01T16:13:53;20.83;53.65
58781;SHT30;45243;51.548;6.990;2022-07-01T16:16:21;20.74;54.17
58781;SHT30;45243;51.548;6.990;2022-07-01T16:18:49;20.74;56.18
58781;SHT30;45243;51.548;6.990;2022-07-01T16:21:16;20.71;59.64
58781;SHT30;45243;51.548;6.990;2022-07-01T16:23:42;20.85;60.25
58781;SHT30;45243;51.548;6.990;2022-07-01T16:26:11;21.05;53.47
58781;SHT30;45243;51.548;6.990;2022-07-01T16:28:37;21.19;56.10
58781;SHT30;45243;51.548;6.990;2022-07-01T16:31:04;21.45;52.97
58781;SHT30;45243;51.548;6.990;2022-07-01T16:33:32;21.59;52.15
58781;SHT30;45243;51.548;6.990;2022-07-01T16:42:20;21.59;52.76
58781;SHT30;45243;51.548;6.990;2022-07-01T16:47:04;21.60;51.66
58781;SHT30;45243;51.548;6.990;2022-07-01T16:49:31;21.62;51.90
58781;SHT30;45243;51.548;6.990;2022-07-01T16:52:01;21.59;55.42
58781;SHT30;45243;51.548;6.990;2022-07-01T16:54:36;21.27;57.13
58781;SHT30;45243;51.548;6.990;2022-07-01T16:57:06;21.07;60.09
58781;SHT30;45243;51.548;6.990;2022-07-01T16:59:37;21.09;51.27
58781;SHT30;45243;51.548;6.990;2022-07-01T17:02:03;21.29;52.62
58781;SHT30;45243;51.548;6.990;2022-07-01T17:04:29;21.36;57.57
58781;SHT30;45243;51.548;6.990;2022-07-01T17:06:56;21.28;54.43
58781;SHT30;45243;51.548;6.990;2022-07-01T17:09:23;21.29;56.66
58781;SHT30;45243;51.548;6.990;2022-07-01T17:11:49;21.14;55.92
58781;SHT30;45243;51.548;6.990;2022-07-01T17:14:15;21.07;53.19
58781;SHT30;45243;51.548;6.990;2022-07-01T17:16:41;21.20;53.84
58781;SHT30;45243;51.548;6.990;2022-07-01T17:19:07;21.25;52.46
58781;SHT30;45243;51.548;6.990;2022-07-01T17:21:35;21.31;53.62
58781;SHT30;45243;51.548;6.990;2022-07-01T17:24:04;21.36;51.06
58781;SHT30;45243;51.548;6.990;2022-07-01T17:26:34;21.38;49.81
58781;SHT30;45243;51.548;6.990;2022-07-01T17:29:08;21.45;50.25
58781;SHT30;45243;51.548;6.990;2022-07-01T17:34:08;21.31;54.47
58781;SHT30;45243;51.548;6.990;2022-07-01T17:36:35;21.23;52.80
58781;SHT30;45243;51.548;6.990;2022-07-01T17:39:05;21.22;52.21
58781;SHT30;45243;51.548;6.990;2022-07-01T17:41:38;21.36;52.24
58781;SHT30;45243;51.548;6.990;2022-07-01T17:44:05;21.34;54.31
58781;SHT30;45243;51.548;6.990;2022-07-01T17:46:33;21.29;54.95
58781;SHT30;45243;51.548;6.990;2022-07-01T17:49:00;21.27;52.56
58781;SHT30;45243;51.548;6.990;2022-07-01T17:51:29;21.22;52.91
58781;SHT30;45243;51.548;6.990;2022-07-01T17:53:55;21.09;53.69
58781;SHT30;45243;51.548;6.990;2022-07-01T17:56:22;21.00;53.07
58781;SHT30;45243;51.548;6.990;2022-07-01T17:58:48;20.91;55.00
58781;SHT30;45243;51.548;6.990;2022-07-01T18:01:15;20.84;53.41
58781;SHT30;45243;51.548;6.990;2022-07-01T18:03:41;20.81;54.11
58781;SHT30;45243;51.548;6.990;2022-07-01T18:06:10;20.59;59.24
58781;SHT30;45243;51.548;6.990;2022-07-01T18:08:35;20.46;55.91
58781;SHT30;45243;51.548;6.990;2022-07-01T18:11:07;20.50;54.87
58781;SHT30;45243;51.548;6.990;2022-07-01T18:16:46;20.39;56.81
58781;SHT30;45243;51.548;6.990;2022-07-01T18:21:46;19.98;61.30
58781;SHT30;45243;51.548;6.990;2022-07-01T18:24:14;19.82;58.56
58781;SHT30;45243;51.548;6.990;2022-07-01T18:26:41;19.75;58.54
58781;SHT30;45243;51.548;6.990;2022-07-01T18:29:11;19.66;59.40
58781;SHT30;45243;51.548;6.990;2022-07-01T18:31:39;19.57;62.46
58781;SHT30;45243;51.548;6.990;2022-07-01T18:34:13;19.40;59.05
58781;SHT30;45243;51.548;6.990;2022-07-01T18:36:44;19.39;60.21
58781;SHT30;45243;51.548;6.990;2022-07-01T18:39:15;19.22;61.90
58781;SHT30;45243;51.548;6.990;2022-07-01T18:41:43;19.10;62.04
58781;SHT30;45243;51.548;6.990;2022-07-01T18:44:08;18.99;62.24
58781;SHT30;45243;51.548;6.990;2022-07-01T18:46:34;18.81;62.45
58781;SHT30;45243;51.548;6.990;2022-07-01T18:49:00;18.71;64.67
58781;SHT30;45243;51.548;6.990;2022-07-01T18:51:25;18.56;66.90
58781;SHT30;45243;51.548;6.990;2022-07-01T18:53:50;18.43;68.98
58781;SHT30;45243;51.548;6.990;2022-07-01T18:56:16;18.23;66.55
58781;SHT30;45243;51.548;6.990;2022-07-01T18:58:41;18.16;68.62
58781;SHT30;45243;51.548;6.990;2022-07-01T19:01:06;18.01;69.47
58781;SHT30;45243;51.548;6.990;2022-07-01T19:03:32;17.93;68.16